Ana Sayfa
METAR-TAF:

METAR-TAF

Havaalanları :

Morganton, Kuzey Carolina, Amerika Birleşik Devletleri

Enlem: 35-49-17N, Boylam: 081-36-39W, yükseklik: 387 m

Güncel hava durumu gözlemi

Rapor saat 05:55 UTC de 25 dakika önce yapıldı.
Sakin rüzgar
Sıcaklık 6°C
Nem 70%
Basınç 1020 hPa
Görüş mesafesi: 16.1 km
11000 ft yükseklikte çok bulutlu

METAR: KMRN 240555Z AUTO 00000KT 10SM OVC110 06/01 A3012 RMK AO2 T00640009 10117 20060 401621056

Saat: 01:20 (06:20 UTC)


TAF: eksik

4.000'den fazla havaalanı için hava durumu gözlemleri ve tahminleri (METAR ve TAF raporları).

Kullanılabilir istasyonlar harita üzerinde sarı ve kırmızı noktalarla gösterilir.

İstasyonun adını görmek için fareyi noktanın üzerinde gezdirin.

Sonrasında hava gözlem ve tahminlerini görmek için tıklayın.

Haritayı değiştirmek için: yaklaştırmak için siyah artı işaretli yeşil düğmeye ve uzaklaştırmak için de eksi işaretli düğmeye hızla tıklayın; bitişik haritalar için yeşil okları kullanın.


METAR-TAF: